createdAt,value
2022-12-09T00:01:38.053Z,9.77
2022-12-09T00:05:41.247Z,9.87
2022-12-09T00:09:43.103Z,8.53
2022-12-09T00:13:51.890Z,9.33
2022-12-09T00:17:53.575Z,9.80
2022-12-09T00:21:55.297Z,10.07
2022-12-09T00:25:57.436Z,8.83
2022-12-09T00:29:59.107Z,8.97
2022-12-09T00:34:03.892Z,8.40
2022-12-09T00:38:05.580Z,8.83
2022-12-09T00:42:07.461Z,8.97
2022-12-09T00:46:10.180Z,9.60
2022-12-09T00:50:12.298Z,9.87
2022-12-09T00:54:14.374Z,9.13
2022-12-09T00:58:16.108Z,8.17
2022-12-09T01:02:17.891Z,9.00
2022-12-09T01:06:23.777Z,8.23
2022-12-09T01:10:25.489Z,8.53
2022-12-09T01:14:27.405Z,7.80
2022-12-09T01:18:29.241Z,8.00
2022-12-09T01:22:31.021Z,8.33
2022-12-09T01:26:32.804Z,7.83
2022-12-09T01:30:34.495Z,6.97
2022-12-09T01:34:36.460Z,8.03
2022-12-09T01:38:38.294Z,8.10
2022-12-09T01:42:39.972Z,8.40
2022-12-09T01:46:42.191Z,8.33
2022-12-09T01:50:53.973Z,7.60
2022-12-09T01:54:55.636Z,8.40
2022-12-09T01:59:02.035Z,7.57
2022-12-09T02:03:06.862Z,8.37
2022-12-09T02:07:10.676Z,8.00
2022-12-09T02:11:27.483Z,7.53
2022-12-09T02:15:46.955Z,7.73
2022-12-09T02:20:13.406Z,7.50
2022-12-09T02:24:53.060Z,7.83
2022-12-09T02:29:20.523Z,7.43
2022-12-09T02:33:50.139Z,6.93
2022-12-09T02:37:51.745Z,7.87
2022-12-09T02:41:56.584Z,8.80
2022-12-09T02:46:00.443Z,7.20
2022-12-09T02:50:07.835Z,7.50
2022-12-09T02:54:14.686Z,7.60
2022-12-09T02:58:16.699Z,7.57
2022-12-09T03:02:35.419Z,7.63
2022-12-09T03:06:46.232Z,7.80
2022-12-09T03:10:51.230Z,6.67
2022-12-09T03:14:55.081Z,6.73
2022-12-09T03:19:30.990Z,6.57
2022-12-09T03:23:35.788Z,6.20
2022-12-09T03:27:40.600Z,6.33
2022-12-09T03:31:43.127Z,6.63
2022-12-09T03:35:56.534Z,5.90
2022-12-09T03:40:00.034Z,6.37
2022-12-09T03:44:11.395Z,7.33
2022-12-09T03:48:13.898Z,7.67
2022-12-09T03:52:18.365Z,8.20
2022-12-09T03:56:24.492Z,8.80
2022-12-09T04:00:26.545Z,9.10
2022-12-09T04:04:28.682Z,8.43
2022-12-09T04:08:31.044Z,8.60
2022-12-09T04:12:32.817Z,8.47
2022-12-09T04:16:34.666Z,7.87
2022-12-09T04:20:36.919Z,8.60
2022-12-09T04:24:38.916Z,7.53
2022-12-09T04:28:40.680Z,6.93
2022-12-09T04:32:42.464Z,7.63
2022-12-09T04:36:44.391Z,7.90
2022-12-09T04:40:46.270Z,8.37
2022-12-09T04:44:48.135Z,7.53
2022-12-09T04:48:49.983Z,7.30
2022-12-09T04:52:51.640Z,8.03
2022-12-09T04:56:53.401Z,7.63
2022-12-09T05:00:55.373Z,7.67
2022-12-09T05:04:57.512Z,24.93
2022-12-09T05:08:59.651Z,8.27
2022-12-09T05:13:01.531Z,7.30
2022-12-09T05:17:04.482Z,7.83
2022-12-09T05:21:07.683Z,7.93
2022-12-09T05:25:10.290Z,8.50
2022-12-09T05:29:15.195Z,8.13
2022-12-09T05:33:19.794Z,8.43
2022-12-09T05:37:21.728Z,9.00
2022-12-09T05:41:24.389Z,8.00
2022-12-09T05:45:26.345Z,9.03
2022-12-09T05:49:29.448Z,8.87
2022-12-09T05:53:31.533Z,9.30
2022-12-09T05:57:36.894Z,9.10
2022-12-09T06:01:39.233Z,8.87
2022-12-09T06:05:42.290Z,8.23
2022-12-09T06:09:44.504Z,9.27
2022-12-09T06:13:47.832Z,10.07
2022-12-09T06:17:50.437Z,9.33
2022-12-09T06:21:52.241Z,10.10
2022-12-09T06:25:54.283Z,9.97
2022-12-09T06:29:56.520Z,9.93
2022-12-09T06:33:59.590Z,9.37
2022-12-09T06:38:01.771Z,9.47
2022-12-09T06:42:04.405Z,10.87
2022-12-09T06:46:18.661Z,10.73
2022-12-09T06:50:20.709Z,10.70
2022-12-09T06:54:23.075Z,11.03
2022-12-09T06:58:24.973Z,11.50
2022-12-09T07:02:30.238Z,11.47
2022-12-09T07:06:41.028Z,11.20
2022-12-09T07:10:48.147Z,10.83
2022-12-09T07:14:53.569Z,11.33
2022-12-09T07:18:55.676Z,11.00
2022-12-09T07:22:57.617Z,11.70
2022-12-09T07:27:06.200Z,11.57
2022-12-09T07:31:25.595Z,11.37
2022-12-09T07:35:27.600Z,12.37
2022-12-09T07:39:29.377Z,11.90
2022-12-09T07:43:34.177Z,12.60
2022-12-09T07:47:36.163Z,13.17
2022-12-09T07:51:38.279Z,11.63
2022-12-09T07:55:40.023Z,13.13
2022-12-09T07:59:42.181Z,13.47
2022-12-09T08:03:44.498Z,24.50
2022-12-09T08:07:46.554Z,30.50
2022-12-09T08:11:48.628Z,17.83
2022-12-09T08:15:50.587Z,15.50
2022-12-09T08:19:52.488Z,16.57
2022-12-09T08:23:56.969Z,16.27
2022-12-09T08:27:59.463Z,16.90
2022-12-09T08:32:03.025Z,16.07
2022-12-09T08:36:10.940Z,16.43
2022-12-09T08:40:14.335Z,16.27
2022-12-09T08:44:19.435Z,17.90
2022-12-09T08:48:21.366Z,17.67
2022-12-09T08:52:23.189Z,17.73
2022-12-09T08:56:25.500Z,17.63
2022-12-09T09:00:27.171Z,18.50
2022-12-09T09:04:31.892Z,17.90
2022-12-09T09:08:34.340Z,18.37
2022-12-09T09:12:42.030Z,19.00
2022-12-09T09:16:45.791Z,17.83
2022-12-09T09:20:49.017Z,19.63
2022-12-09T09:24:52.383Z,19.63
2022-12-09T09:28:55.705Z,18.57
2022-12-09T09:32:57.609Z,19.73
2022-12-09T09:36:59.470Z,48.57
2022-12-09T09:41:06.897Z,21.80
2022-12-09T09:45:15.886Z,19.97
2022-12-09T09:49:27.187Z,21.93
2022-12-09T09:53:34.860Z,20.70
2022-12-09T09:57:44.468Z,22.67
2022-12-09T10:02:08.899Z,23.10
2022-12-09T10:06:42.632Z,23.63
2022-12-09T10:11:02.226Z,22.87
2022-12-09T10:15:15.931Z,25.50
2022-12-09T10:19:32.993Z,24.73
2022-12-09T10:23:35.379Z,22.87
2022-12-09T10:27:52.612Z,21.17
2022-12-09T10:31:54.629Z,23.13
2022-12-09T10:35:56.942Z,22.67
2022-12-09T10:40:08.229Z,22.87
2022-12-09T10:44:26.162Z,22.47
2022-12-09T10:48:32.701Z,25.30
2022-12-09T10:52:45.377Z,23.93
2022-12-09T10:57:15.127Z,23.80
2022-12-09T11:01:18.561Z,24.47
2022-12-09T11:05:28.567Z,24.53
2022-12-09T11:09:42.857Z,26.57
2022-12-09T11:13:44.956Z,24.70
2022-12-09T11:18:03.303Z,23.73
2022-12-09T11:22:33.495Z,24.97
2022-12-09T11:26:39.195Z,24.07
2022-12-09T11:35:30.301Z,25.93
2022-12-09T11:39:35.562Z,23.67
2022-12-09T11:43:42.612Z,25.43
2022-12-09T11:52:17.470Z,24.40
2022-12-09T11:56:25.777Z,26.13
2022-12-09T12:00:34.686Z,25.60
2022-12-09T12:04:57.707Z,23.90
2022-12-09T12:09:02.943Z,24.37
2022-12-09T12:13:16.963Z,25.13
2022-12-09T12:17:25.749Z,25.37
2022-12-09T12:21:54.895Z,24.93
2022-12-09T12:26:09.441Z,26.57
2022-12-09T12:30:15.707Z,24.20
2022-12-09T12:34:39.067Z,26.20
2022-12-09T12:39:06.394Z,26.10
2022-12-09T12:43:57.551Z,25.13
2022-12-09T12:48:07.073Z,27.30
2022-12-09T12:52:53.804Z,26.43
2022-12-09T12:56:44.963Z,25.80
2022-12-09T13:01:18.050Z,31.63
2022-12-09T13:05:29.393Z,34.73
2022-12-09T13:09:34.744Z,47.47
2022-12-09T13:13:49.881Z,31.07
2022-12-09T13:17:52.044Z,29.83
2022-12-09T13:21:53.972Z,37.53
2022-12-09T13:26:26.488Z,26.77
2022-12-09T13:30:37.852Z,24.30
2022-12-09T13:34:52.487Z,29.00
2022-12-09T13:38:54.133Z,26.27
2022-12-09T13:43:03.936Z,30.23
2022-12-09T13:47:25.851Z,32.27
2022-12-09T13:51:45.044Z,24.90
2022-12-09T13:55:55.737Z,25.57
2022-12-09T14:00:03.606Z,29.13
2022-12-09T14:04:21.316Z,24.33
2022-12-09T14:08:31.016Z,21.93
2022-12-09T14:12:32.672Z,22.07
2022-12-09T14:16:34.857Z,30.97
2022-12-09T14:20:39.244Z,38.80
2022-12-09T14:24:41.290Z,30.43
2022-12-09T14:28:54.045Z,33.20
2022-12-09T14:32:57.361Z,26.93
2022-12-09T14:37:17.163Z,25.13
2022-12-09T14:41:26.392Z,25.33
2022-12-09T14:45:50.220Z,27.60
2022-12-09T14:49:54.345Z,32.07
2022-12-09T14:54:06.364Z,27.00
2022-12-09T14:58:18.468Z,23.60
2022-12-09T15:02:25.948Z,24.03
2022-12-09T15:06:28.967Z,22.90
2022-12-09T15:10:36.308Z,21.07
2022-12-09T15:14:40.191Z,22.20
2022-12-09T15:18:44.353Z,20.77
2022-12-09T15:22:52.667Z,21.87
2022-12-09T15:26:59.975Z,23.70
2022-12-09T15:31:05.644Z,23.37
2022-12-09T15:35:33.810Z,20.43
2022-12-09T15:39:52.074Z,23.10
2022-12-09T15:43:57.566Z,24.80
2022-12-09T15:48:18.994Z,20.93
2022-12-09T15:52:26.141Z,20.83
2022-12-09T15:57:02.051Z,25.13
2022-12-09T16:01:04.131Z,21.43
2022-12-09T16:05:08.533Z,21.90
2022-12-09T16:09:16.015Z,21.63
2022-12-09T16:13:19.746Z,22.00
2022-12-09T16:17:27.537Z,21.47
2022-12-09T16:21:33.497Z,22.17
2022-12-09T16:25:40.588Z,46.27
2022-12-09T16:29:49.240Z,38.60
2022-12-09T16:33:51.291Z,28.60
2022-12-09T16:37:58.847Z,31.43
2022-12-09T16:42:02.924Z,24.10
2022-12-09T16:46:13.775Z,22.83
2022-12-09T16:50:15.491Z,20.57
2022-12-09T16:54:20.666Z,20.70
2022-12-09T16:58:23.033Z,21.20
2022-12-09T17:02:29.173Z,22.13
2022-12-09T17:06:31.218Z,21.23
2022-12-09T17:10:32.940Z,21.30
2022-12-09T17:14:34.703Z,21.03
2022-12-09T17:18:36.608Z,22.10
2022-12-09T17:22:38.356Z,23.03
2022-12-09T17:26:40.069Z,33.40
2022-12-09T17:30:41.748Z,23.37
2022-12-09T17:34:43.534Z,27.93
2022-12-09T17:38:45.620Z,46.13
2022-12-09T17:42:47.298Z,106.33
2022-12-09T17:46:50.488Z,37.30
2022-12-09T17:50:52.115Z,23.40
2022-12-09T17:54:53.837Z,21.20
2022-12-09T17:59:00.891Z,23.43
2022-12-09T18:03:02.556Z,20.97
2022-12-09T18:07:04.237Z,30.63
2022-12-09T18:11:08.143Z,21.33
2022-12-09T18:15:10.283Z,20.50
2022-12-09T18:19:16.246Z,18.83
2022-12-09T18:23:17.959Z,18.43
2022-12-09T18:27:19.604Z,20.20
2022-12-09T18:31:21.767Z,22.07
2022-12-09T18:35:23.511Z,30.40
2022-12-09T18:39:25.148Z,35.23
2022-12-09T18:43:36.283Z,32.30
2022-12-09T18:47:37.911Z,28.23
2022-12-09T18:51:41.166Z,23.30
2022-12-09T18:55:43.275Z,21.60
2022-12-09T18:59:45.762Z,20.40
2022-12-09T19:03:48.198Z,23.10
2022-12-09T19:07:50.009Z,23.23
2022-12-09T19:11:52.825Z,24.03
2022-12-09T19:15:54.594Z,21.23
2022-12-09T19:19:56.432Z,22.50
2022-12-09T19:23:58.989Z,23.60
2022-12-09T19:28:01.012Z,27.80
2022-12-09T19:32:02.784Z,18.67
2022-12-09T19:36:04.761Z,18.83
2022-12-09T19:40:07.624Z,18.67
2022-12-09T19:44:15.311Z,18.60
2022-12-09T19:48:17.472Z,19.63
2022-12-09T19:52:19.229Z,23.27
2022-12-09T19:56:21.922Z,24.37
2022-12-09T20:00:23.628Z,19.87
2022-12-09T20:04:48.305Z,20.07
2022-12-09T20:08:48.598Z,21.37
2022-12-09T20:12:50.949Z,22.00
2022-12-09T20:16:52.625Z,19.30
2022-12-09T20:20:54.400Z,19.37
2022-12-09T20:24:56.251Z,22.33
2022-12-09T20:29:01.810Z,32.90
2022-12-09T20:33:03.553Z,24.13
2022-12-09T20:37:05.662Z,20.27
2022-12-09T20:41:12.871Z,22.20
2022-12-09T20:45:14.566Z,23.57
2022-12-09T20:49:16.437Z,21.77
2022-12-09T20:53:18.086Z,21.07
2022-12-09T20:57:19.811Z,20.23
2022-12-09T21:01:27.259Z,21.13
2022-12-09T21:05:29.041Z,20.03
2022-12-09T21:09:31.040Z,21.30
2022-12-09T21:13:36.609Z,21.77
2022-12-09T21:17:38.396Z,21.73
2022-12-09T21:21:42.595Z,22.07
2022-12-09T21:25:44.274Z,22.10
2022-12-09T21:29:45.938Z,18.83
2022-12-09T21:33:49.591Z,19.23
2022-12-09T21:37:55.994Z,18.97
2022-12-09T21:41:58.084Z,19.70
2022-12-09T21:46:19.890Z,18.83
2022-12-09T21:50:21.676Z,19.60
2022-12-09T21:54:23.352Z,19.60
2022-12-09T21:58:25.004Z,18.43
2022-12-09T22:02:26.692Z,19.37
2022-12-09T22:06:29.302Z,18.30
2022-12-09T22:10:31.100Z,20.67
2022-12-09T22:14:32.813Z,19.03
2022-12-09T22:18:35.201Z,17.27
2022-12-09T22:22:38.896Z,17.87
2022-12-09T22:26:43.514Z,18.43
2022-12-09T22:30:45.223Z,17.83
2022-12-09T22:34:46.930Z,18.80
2022-12-09T22:38:48.983Z,17.37
2022-12-09T22:42:50.682Z,18.30
2022-12-09T22:46:52.520Z,21.00
2022-12-09T22:50:54.163Z,21.23
2022-12-09T22:54:55.796Z,21.67
2022-12-09T22:58:58.793Z,21.10
2022-12-09T23:03:00.559Z,17.77
2022-12-09T23:07:02.615Z,18.97
2022-12-09T23:11:07.938Z,20.17
2022-12-09T23:15:09.979Z,25.23
2022-12-09T23:19:12.955Z,21.27
2022-12-09T23:23:15.020Z,20.93
2022-12-09T23:27:16.714Z,21.13
2022-12-09T23:31:20.743Z,20.37
2022-12-09T23:35:22.426Z,18.27
2022-12-09T23:39:24.106Z,18.77
2022-12-09T23:43:25.863Z,18.37
2022-12-09T23:47:27.495Z,17.60
2022-12-09T23:51:32.091Z,18.63
2022-12-09T23:55:33.734Z,17.53
2022-12-09T23:59:35.888Z,18.23
